Time;durP1;ratioP1;P1;durP2;ratioP2;P2;SDS_P1;SDS_P2;PMS_P1;PMS_P2;Temp;Humidity;BMP_temperature;BMP_pressure;BME280_temperature;BME280_humidity;BME280_pressure;Samples;Min_cycle;Max_cycle;Signal;HPM_P1;HPM_P2
2022/01/16 00:04:50;;;;;;;20.70;12.27;;;1.00;96.10;;;;;;6219463;22;20165;-83
2022/01/16 00:07:17;;;;;;;19.20;12.57;;;1.00;96.20;;;;;;6245675;22;20532;-84
2022/01/16 00:09:47;;;;;;;21.50;12.67;;;1.00;96.50;;;;;;6244927;23;20177;-84
2022/01/16 00:12:18;;;;;;;27.80;12.87;;;0.90;96.60;;;;;;6245595;22;20200;-84
2022/01/16 00:14:45;;;;;;;24.87;12.50;;;0.70;96.90;;;;;;6246087;22;20196;-83
2022/01/16 00:17:12;;;;;;;21.63;13.00;;;0.80;97.20;;;;;;6243636;22;20219;-84
2022/01/16 00:19:39;;;;;;;26.23;13.03;;;0.90;96.80;;;;;;6244200;23;20169;-83
2022/01/16 00:22:12;;;;;;;24.77;13.07;;;1.00;96.80;;;;;;6245602;22;20208;-84
2022/01/16 00:24:40;;;;;;;25.27;13.20;;;0.80;96.80;;;;;;6250305;22;20180;-84
2022/01/16 00:27:08;;;;;;;22.07;13.13;;;0.70;97.00;;;;;;6249665;22;20316;-85
2022/01/16 00:29:36;;;;;;;22.10;12.67;;;1.00;98.00;;;;;;6255152;22;20177;-84
2022/01/16 00:32:04;;;;;;;22.83;12.37;;;1.00;97.40;;;;;;6247945;22;20169;-83
2022/01/16 00:34:31;;;;;;;22.87;13.33;;;1.20;96.80;;;;;;6248881;22;20260;-83
2022/01/16 00:36:58;;;;;;;23.13;12.00;;;1.30;97.50;;;;;;6246872;22;20192;-83
2022/01/16 00:39:25;;;;;;;21.20;12.00;;;1.20;96.10;;;;;;6246482;23;20180;-85
2022/01/16 00:41:52;;;;;;;28.87;12.70;;;1.20;96.90;;;;;;6247590;22;20187;-84
2022/01/16 00:44:21;;;;;;;19.83;11.43;;;1.10;96.50;;;;;;6245335;22;20176;-84
2022/01/16 00:46:49;;;;;;;22.73;11.93;;;1.00;96.80;;;;;;6245790;22;20182;-84
2022/01/16 00:49:16;;;;;;;32.97;12.43;;;1.00;96.80;;;;;;6244750;22;20688;-84
2022/01/16 00:51:43;;;;;;;27.23;13.27;;;1.10;96.90;;;;;;6248380;22;20173;-84
2022/01/16 00:54:10;;;;;;;20.80;12.30;;;1.10;96.90;;;;;;6230700;22;20200;-84
2022/01/16 00:56:38;;;;;;;20.33;11.80;;;1.40;97.50;;;;;;6248423;22;20283;-84
2022/01/16 00:59:05;;;;;;;22.73;13.03;;;1.40;96.50;;;;;;6247365;22;20206;-84
2022/01/16 01:01:34;;;;;;;24.57;12.90;;;1.50;96.40;;;;;;6248123;22;20217;-86
2022/01/16 01:04:02;;;;;;;22.07;12.70;;;1.60;96.00;;;;;;6248419;22;20207;-83
2022/01/16 01:06:29;;;;;;;22.03;13.00;;;1.60;96.10;;;;;;6249710;22;20191;-84
2022/01/16 01:08:56;;;;;;;22.00;12.30;;;1.60;95.40;;;;;;6248766;22;20225;-84
2022/01/16 01:11:27;;;;;;;30.13;12.37;;;1.40;95.80;;;;;;6250003;22;20538;-83
2022/01/16 01:14:14;;;;;;;26.33;12.33;;;1.30;95.50;;;;;;6248940;22;20259;-83
2022/01/16 01:16:51;;;;;;;25.17;12.97;;;1.00;95.70;;;;;;6248178;22;20200;-84
2022/01/16 01:19:24;;;;;;;26.73;13.60;;;0.90;97.50;;;;;;6247088;22;20192;-84
2022/01/16 01:21:51;;;;;;;26.87;13.90;;;1.10;97.30;;;;;;6247365;22;20165;-83
2022/01/16 01:24:18;;;;;;;31.87;13.50;;;1.10;97.10;;;;;;6248123;22;20634;-83
2022/01/16 01:26:54;;;;;;;25.87;13.37;;;1.00;97.10;;;;;;6245514;22;20534;-84
2022/01/16 01:29:21;;;;;;;23.07;13.97;;;1.00;96.90;;;;;;6247415;23;20176;-83
2022/01/16 01:31:51;;;;;;;24.00;14.07;;;1.00;96.80;;;;;;6248456;22;20176;-83
2022/01/16 01:34:20;;;;;;;23.03;13.17;;;1.20;97.20;;;;;;6248434;22;20260;-84
2022/01/16 01:36:48;;;;;;;25.30;15.30;;;1.30;96.90;;;;;;6247647;22;20193;-84
2022/01/16 01:39:17;;;;;;;25.50;13.80;;;1.30;96.40;;;;;;6247706;22;20205;-83
2022/01/16 01:41:46;;;;;;;23.40;13.53;;;1.10;96.40;;;;;;6248378;22;20172;-84
2022/01/16 01:52:31;;;;;;;22.60;13.10;;;1.10;96.60;;;;;;6251052;22;20257;-83
2022/01/16 01:54:58;;;;;;;28.10;13.60;;;1.30;96.80;;;;;;6251871;22;20216;-83
2022/01/16 01:57:25;;;;;;;25.77;14.00;;;1.40;96.30;;;;;;6251363;22;20208;-84
2022/01/16 01:59:54;;;;;;;24.57;13.90;;;1.40;96.60;;;;;;6251921;22;20172;-83
2022/01/16 02:02:24;;;;;;;27.93;13.60;;;1.30;96.30;;;;;;6252251;22;20242;-84
2022/01/16 02:04:52;;;;;;;25.60;14.40;;;1.50;96.10;;;;;;6247740;23;20169;-83
2022/01/16 02:07:19;;;;;;;26.47;14.70;;;1.30;95.80;;;;;;6251301;22;20197;-84
2022/01/16 02:09:47;;;;;;;29.47;14.63;;;1.40;96.20;;;;;;6252839;22;20234;-84
2022/01/16 02:12:14;;;;;;;29.57;15.50;;;1.40;96.90;;;;;;6253210;22;20213;-83
2022/01/16 02:14:55;;;;;;;26.00;14.00;;;1.60;96.30;;;;;;6251677;22;20172;-84
2022/01/16 02:28:48;;;;;;;25.27;13.57;;;1.50;95.80;;;;;;6246990;22;20215;-85
2022/01/16 02:31:19;;;;;;;24.77;13.57;;;1.30;95.30;;;;;;6247345;23;20192;-84
2022/01/16 02:36:35;;;;;;;23.30;13.37;;;1.30;96.10;;;;;;6250506;23;20271;-84
2022/01/16 02:39:11;;;;;;;23.80;12.53;;;1.40;96.40;;;;;;6251574;22;20287;-84
2022/01/16 02:41:38;;;;;;;22.00;12.87;;;1.20;95.60;;;;;;6251672;22;20217;-84
2022/01/16 02:44:16;;;;;;;22.93;13.50;;;1.10;96.50;;;;;;6253164;22;20256;-84
2022/01/16 02:46:44;;;;;;;21.87;12.63;;;0.90;96.20;;;;;;6253480;22;20215;-84
2022/01/16 02:49:23;;;;;;;21.87;13.03;;;0.90;97.50;;;;;;6255263;22;20204;-85
2022/01/16 02:51:52;;;;;;;27.10;14.00;;;0.90;96.80;;;;;;6255630;22;20161;-84
2022/01/16 02:54:27;;;;;;;23.50;14.33;;;1.00;97.60;;;;;;6253714;22;20539;-84
2022/01/16 02:56:54;;;;;;;25.30;13.80;;;1.20;97.40;;;;;;6252028;22;20181;-84
2022/01/16 02:59:21;;;;;;;26.27;14.80;;;1.40;96.70;;;;;;6248962;23;20503;-84
2022/01/16 03:01:50;;;;;;;24.33;13.57;;;1.20;96.00;;;;;;6251530;22;20165;-84
2022/01/16 03:04:17;;;;;;;25.50;14.17;;;1.10;96.40;;;;;;6250441;22;20572;-84
2022/01/16 03:06:44;;;;;;;23.20;13.60;;;1.20;97.10;;;;;;6250644;22;20173;-86
2022/01/16 03:09:15;;;;;;;25.03;14.23;;;1.30;96.50;;;;;;6248603;22;20272;-85
2022/01/16 03:11:47;;;;;;;28.47;15.10;;;1.40;96.00;;;;;;6250262;22;20209;-84
2022/01/16 03:14:17;;;;;;;25.33;14.47;;;1.50;96.30;;;;;;6246509;22;20492;-84
2022/01/16 03:16:48;;;;;;;26.87;15.63;;;1.60;95.80;;;;;;6246855;22;20500;-85
2022/01/16 03:22:03;;;;;;;25.70;14.63;;;1.40;95.60;;;;;;6258290;22;20159;-84
2022/01/16 03:24:33;;;;;;;27.50;15.10;;;1.30;96.60;;;;;;6258967;22;20244;-83
2022/01/16 03:27:04;;;;;;;26.73;15.10;;;1.50;96.90;;;;;;6258362;22;20237;-84
2022/01/16 03:29:32;;;;;;;25.93;14.43;;;1.50;95.50;;;;;;6259269;22;20154;-84
2022/01/16 03:32:01;;;;;;;25.90;15.47;;;1.20;95.60;;;;;;6259026;22;20252;-84
2022/01/16 03:34:28;;;;;;;27.87;14.83;;;1.20;96.30;;;;;;6258809;22;20172;-84
2022/01/16 03:36:57;;;;;;;26.37;14.37;;;1.30;96.50;;;;;;6259349;22;20279;-84
2022/01/16 03:39:24;;;;;;;26.77;15.57;;;1.10;96.50;;;;;;6259288;22;20212;-84
2022/01/16 03:41:52;;;;;;;24.03;14.27;;;1.30;97.00;;;;;;6259918;22;20641;-84
2022/01/16 03:44:20;;;;;;;25.37;14.63;;;1.10;96.90;;;;;;6258707;22;20211;-84
2022/01/16 03:46:48;;;;;;;28.60;14.63;;;1.30;97.20;;;;;;6258675;22;20172;-84
2022/01/16 03:49:17;;;;;;;31.23;15.63;;;1.40;97.50;;;;;;6258075;22;20217;-84
2022/01/16 03:51:46;;;;;;;24.23;13.63;;;1.40;96.40;;;;;;6257003;23;20240;-84
2022/01/16 03:54:16;;;;;;;28.20;15.20;;;1.40;96.70;;;;;;6255866;22;20617;-83
2022/01/16 03:56:47;;;;;;;25.80;15.73;;;1.50;96.60;;;;;;6255624;22;20241;-84
2022/01/16 03:59:15;;;;;;;26.33;15.13;;;1.70;95.60;;;;;;6254385;23;20221;-84
2022/01/16 04:01:44;;;;;;;26.30;15.30;;;1.60;96.00;;;;;;6255001;22;20174;-84
2022/01/16 04:04:11;;;;;;;27.63;14.30;;;1.80;96.20;;;;;;6255041;22;20208;-85
2022/01/16 04:06:38;;;;;;;23.20;14.03;;;1.80;95.60;;;;;;6254525;23;20173;-84
2022/01/16 04:09:05;;;;;;;25.73;15.37;;;1.50;95.40;;;;;;6257100;22;20276;-83
2022/01/16 04:11:34;;;;;;;25.27;14.77;;;1.30;96.00;;;;;;6257704;22;20224;-84
2022/01/16 04:14:07;;;;;;;24.40;14.93;;;1.40;96.00;;;;;;6263109;22;20193;-85
2022/01/16 04:16:35;;;;;;;27.33;15.77;;;1.50;96.90;;;;;;6251384;22;20200;-84
2022/01/16 04:19:05;;;;;;;36.20;15.83;;;1.50;96.60;;;;;;6252733;22;20259;-84
2022/01/16 04:21:32;;;;;;;28.20;15.87;;;1.50;96.00;;;;;;6254427;22;20170;-85
2022/01/16 04:23:59;;;;;;;27.03;15.20;;;1.30;96.90;;;;;;6253784;22;20252;-84
2022/01/16 04:26:26;;;;;;;26.67;14.77;;;1.50;96.90;;;;;;6251832;22;20173;-84
2022/01/16 04:28:55;;;;;;;24.70;14.37;;;1.50;96.20;;;;;;6250559;22;20578;-83
2022/01/16 04:31:23;;;;;;;27.87;14.80;;;1.30;95.80;;;;;;6253719;22;20889;-83
2022/01/16 04:33:51;;;;;;;25.80;15.00;;;1.30;96.90;;;;;;6252030;22;20281;-84
2022/01/16 04:36:20;;;;;;;25.63;15.43;;;1.40;96.90;;;;;;6254256;22;20199;-84
2022/01/16 04:38:49;;;;;;;25.20;14.60;;;1.60;96.80;;;;;;6251006;22;20201;-84
2022/01/16 04:44:03;;;;;;;27.83;16.00;;;1.60;96.00;;;;;;6253563;22;20207;-83
2022/01/16 04:46:31;;;;;;;25.30;15.43;;;1.40;96.00;;;;;;6253958;22;20237;-83
2022/01/16 04:48:59;;;;;;;27.07;15.77;;;1.20;96.70;;;;;;6253501;22;20590;-83
2022/01/16 04:51:30;;;;;;;25.83;15.00;;;1.40;97.80;;;;;;6253022;22;20173;-83
2022/01/16 04:53:57;;;;;;;24.43;15.27;;;1.20;97.30;;;;;;6251299;22;20200;-83
2022/01/16 04:56:24;;;;;;;23.23;13.97;;;1.20;97.00;;;;;;6254120;22;20220;-84
2022/01/16 04:58:56;;;;;;;25.90;14.00;;;1.00;97.30;;;;;;6252343;22;20204;-84
2022/01/16 05:01:23;;;;;;;24.13;14.03;;;0.80;97.70;;;;;;6253160;22;20158;-84
2022/01/16 05:03:50;;;;;;;24.60;13.13;;;0.80;98.00;;;;;;6252182;22;20224;-85
2022/01/16 05:06:18;;;;;;;19.07;13.30;;;1.00;97.80;;;;;;6256740;22;20177;-84
2022/01/16 05:08:46;;;;;;;19.30;13.37;;;0.80;97.40;;;;;;6254561;22;20208;-85
2022/01/16 05:11:15;;;;;;;20.97;13.80;;;0.50;97.00;;;;;;6253163;22;20226;-85
2022/01/16 05:16:37;;;;;;;21.63;13.30;;;0.30;97.90;;;;;;6220553;22;20215;-84
2022/01/16 05:19:06;;;;;;;20.97;13.00;;;0.40;97.70;;;;;;6254096;22;20204;-84
2022/01/16 05:21:33;;;;;;;22.57;14.07;;;0.40;97.90;;;;;;6255157;22;20172;-84
2022/01/16 05:24:07;;;;;;;20.70;13.43;;;0.40;98.40;;;;;;6254585;22;20227;-84
2022/01/16 05:26:35;;;;;;;21.63;13.17;;;0.40;97.80;;;;;;6253062;22;20161;-85
2022/01/16 05:29:02;;;;;;;21.63;12.90;;;0.30;97.70;;;;;;6254819;22;20644;-84
2022/01/16 05:31:30;;;;;;;22.10;14.10;;;0.60;97.60;;;;;;6256506;22;20200;-84
2022/01/16 05:33:57;;;;;;;19.83;13.20;;;0.80;97.20;;;;;;6256704;22;20228;-84
2022/01/16 05:36:24;;;;;;;19.47;12.70;;;1.00;96.90;;;;;;6254250;22;20675;-84
2022/01/16 05:38:53;;;;;;;21.30;13.07;;;0.90;96.60;;;;;;6245998;22;20201;-85
2022/01/16 05:41:21;;;;;;;18.20;12.77;;;1.00;96.60;;;;;;6246537;22;20172;-85
2022/01/16 05:43:49;;;;;;;20.30;13.33;;;1.00;96.10;;;;;;6245194;22;20283;-84
2022/01/16 05:46:17;;;;;;;20.23;13.23;;;1.00;95.80;;;;;;6244774;22;20845;-85
2022/01/16 05:48:44;;;;;;;20.57;13.97;;;0.80;96.70;;;;;;6243700;22;20278;-85
2022/01/16 05:51:11;;;;;;;17.77;12.47;;;0.80;96.40;;;;;;6244663;22;20174;-85
2022/01/16 05:53:38;;;;;;;21.33;14.13;;;0.80;96.80;;;;;;6243817;22;20248;-85
2022/01/16 05:56:06;;;;;;;20.53;14.10;;;0.60;96.80;;;;;;6244143;22;20183;-85
2022/01/16 05:58:34;;;;;;;20.63;14.17;;;0.60;96.90;;;;;;6241988;22;20197;-84
2022/01/16 06:01:01;;;;;;;19.50;13.70;;;0.70;97.20;;;;;;6243883;22;20168;-84
2022/01/16 06:03:28;;;;;;;20.03;13.67;;;0.60;96.80;;;;;;6243955;22;20197;-84
2022/01/16 06:05:55;;;;;;;19.23;13.90;;;0.70;97.20;;;;;;6244159;22;20168;-83
2022/01/16 06:08:22;;;;;;;20.03;13.87;;;0.90;96.70;;;;;;6244521;22;20234;-84
2022/01/16 06:10:49;;;;;;;18.87;12.70;;;0.90;96.00;;;;;;6245191;22;20531;-84
2022/01/16 06:13:16;;;;;;;18.20;13.17;;;1.00;96.00;;;;;;6243646;22;20653;-84
2022/01/16 06:15:46;;;;;;;19.70;14.53;;;1.10;96.00;;;;;;6243858;22;20169;-84
2022/01/16 06:18:17;;;;;;;19.67;14.00;;;0.80;95.50;;;;;;6243237;22;20258;-84
2022/01/16 06:20:44;;;;;;;19.33;14.00;;;0.80;96.60;;;;;;6244409;22;20161;-85
2022/01/16 06:23:12;;;;;;;20.37;14.00;;;0.80;95.70;;;;;;6243807;22;20211;-84
2022/01/16 06:25:39;;;;;;;19.70;13.80;;;1.00;95.90;;;;;;6244305;22;20172;-84
2022/01/16 06:28:06;;;;;;;18.93;13.93;;;1.00;95.30;;;;;;6244690;22;20206;-84
2022/01/16 06:30:33;;;;;;;19.20;14.23;;;0.90;95.00;;;;;;6244954;22;20193;-84
2022/01/16 06:33:03;;;;;;;21.50;14.83;;;0.60;95.00;;;;;;6244117;22;20649;-85
2022/01/16 06:35:30;;;;;;;21.40;15.77;;;0.60;96.40;;;;;;6244473;22;20593;-84
2022/01/16 06:37:57;;;;;;;22.20;15.33;;;0.70;95.70;;;;;;6244203;22;20201;-84
2022/01/16 06:40:24;;;;;;;20.80;15.03;;;0.60;95.50;;;;;;6244777;22;20195;-83
2022/01/16 06:42:52;;;;;;;23.00;16.03;;;0.60;95.50;;;;;;6244028;22;20272;-84
2022/01/16 06:45:19;;;;;;;21.67;15.07;;;0.50;96.20;;;;;;6243904;23;20168;-84
2022/01/16 06:47:47;;;;;;;20.37;14.90;;;0.50;96.10;;;;;;6243244;23;20506;-84
2022/01/16 06:50:15;;;;;;;21.07;14.83;;;0.60;96.80;;;;;;6246160;22;20255;-84
2022/01/16 06:52:42;;;;;;;20.07;14.03;;;0.80;96.40;;;;;;6245263;22;20196;-84
2022/01/16 06:55:11;;;;;;;21.63;13.87;;;1.00;95.00;;;;;;6246626;22;20169;-84
2022/01/16 06:57:38;;;;;;;21.60;15.53;;;1.10;94.60;;;;;;6244483;22;20212;-83
2022/01/16 07:00:07;;;;;;;21.13;15.33;;;0.80;94.20;;;;;;6246684;22;20263;-84
2022/01/16 07:02:34;;;;;;;22.10;14.93;;;0.60;94.90;;;;;;6245145;22;20268;-84
2022/01/16 07:05:02;;;;;;;22.00;15.10;;;0.80;95.70;;;;;;6245987;22;20251;-84
2022/01/16 07:07:30;;;;;;;21.87;15.50;;;0.80;95.10;;;;;;6245801;22;20508;-84
2022/01/16 07:09:57;;;;;;;20.57;14.73;;;1.00;95.40;;;;;;6246634;22;20493;-84
2022/01/16 07:12:25;;;;;;;21.37;14.77;;;1.10;94.80;;;;;;6245958;22;20274;-84
2022/01/16 07:14:52;;;;;;;19.80;14.07;;;0.90;94.20;;;;;;6246375;22;20169;-84
2022/01/16 07:17:19;;;;;;;20.60;14.77;;;0.80;95.00;;;;;;6244517;22;20202;-84
2022/01/16 07:19:46;;;;;;;20.73;14.60;;;0.80;94.50;;;;;;6244208;22;20203;-84
2022/01/16 07:22:13;;;;;;;21.13;14.17;;;0.90;94.90;;;;;;6244826;22;20251;-83
2022/01/16 07:24:41;;;;;;;21.17;14.80;;;0.70;94.90;;;;;;6249566;22;20477;-84
2022/01/16 07:27:16;;;;;;;21.97;15.53;;;0.60;95.00;;;;;;6247462;22;20170;-85
2022/01/16 07:29:43;;;;;;;19.23;14.47;;;0.60;94.90;;;;;;6243641;22;20187;-83
2022/01/16 07:32:22;;;;;;;23.23;14.30;;;0.70;95.00;;;;;;6243817;22;20194;-86
2022/01/16 07:34:49;;;;;;;21.03;14.10;;;0.70;94.80;;;;;;6245095;23;20205;-86
2022/01/16 07:37:16;;;;;;;19.10;14.17;;;0.50;94.70;;;;;;6248033;22;20412;-86
2022/01/16 07:39:45;;;;;;;20.13;14.60;;;0.50;95.30;;;;;;6247442;22;20649;-86
2022/01/16 07:42:12;;;;;;;18.23;13.47;;;0.60;96.00;;;;;;6246935;22;20224;-87
2022/01/16 07:44:39;;;;;;;20.20;14.47;;;0.40;95.40;;;;;;6245462;22;20262;-87
2022/01/16 07:47:07;;;;;;;18.40;13.37;;;0.60;96.20;;;;;;6244722;22;20176;-86
2022/01/16 07:49:34;;;;;;;17.53;13.00;;;0.80;95.40;;;;;;6245810;22;20175;-87
2022/01/16 07:52:02;;;;;;;16.90;12.87;;;0.80;94.50;;;;;;6242630;22;20201;-86
2022/01/16 07:54:29;;;;;;;16.93;13.17;;;0.80;95.10;;;;;;6241615;23;20235;-85
2022/01/16 07:56:57;;;;;;;18.57;12.93;;;0.70;94.70;;;;;;6245360;22;20612;-85
2022/01/16 07:59:24;;;;;;;19.97;13.37;;;0.70;95.30;;;;;;6245040;22;20491;-85
2022/01/16 08:01:51;;;;;;;17.77;12.60;;;0.80;95.00;;;;;;6245287;22;20252;-84
2022/01/16 08:04:19;;;;;;;18.43;12.27;;;0.80;95.20;;;;;;6242543;23;20208;-86
2022/01/16 08:06:46;;;;;;;17.63;13.00;;;1.00;94.20;;;;;;6245358;22;20255;-85
2022/01/16 08:09:13;;;;;;;19.30;13.63;;;0.90;94.60;;;;;;6244367;22;20204;-85
2022/01/16 08:11:40;;;;;;;17.37;12.40;;;1.20;94.90;;;;;;6246237;22;20495;-85
2022/01/16 08:14:09;;;;;;;17.17;12.23;;;1.60;93.50;;;;;;6247464;22;20208;-87
2022/01/16 08:16:36;;;;;;;18.07;12.80;;;1.80;93.30;;;;;;6206885;22;1126169;-87
2022/01/16 08:19:03;;;;;;;42.27;28.33;;;1.90;92.90;;;;;;6248933;23;20257;-88
2022/01/16 08:21:30;;;;;;;36.20;23.47;;;2.10;92.40;;;;;;6247977;23;20168;-88
2022/01/16 08:23:57;;;;;;;51.07;33.17;;;2.00;91.90;;;;;;6247850;23;20627;-83
2022/01/16 08:26:24;;;;;;;16.13;13.50;;;2.00;92.50;;;;;;6254378;23;20221;-84
2022/01/16 08:28:51;;;;;;;17.67;12.60;;;1.90;91.70;;;;;;6250857;23;20285;-87
2022/01/16 08:31:20;;;;;;;25.80;18.10;;;1.90;92.20;;;;;;6251675;23;20498;-85
2022/01/16 08:33:47;;;;;;;22.83;16.53;;;2.00;92.70;;;;;;6250955;23;20292;-84
2022/01/16 08:36:14;;;;;;;25.03;17.30;;;2.30;92.10;;;;;;6250627;23;20200;-83
2022/01/16 08:38:41;;;;;;;46.53;31.90;;;2.50;91.70;;;;;;6252460;22;20204;-84
2022/01/16 08:41:11;;;;;;;23.43;17.13;;;2.60;91.40;;;;;;6245709;22;20196;-83
2022/01/16 08:43:38;;;;;;;23.00;16.87;;;2.70;90.30;;;;;;6245044;22;20277;-83
2022/01/16 08:46:07;;;;;;;27.73;18.83;;;2.50;90.70;;;;;;6245189;22;20256;-82
2022/01/16 08:48:35;;;;;;;18.40;13.60;;;2.40;91.80;;;;;;6246307;22;20200;-86
2022/01/16 08:51:03;;;;;;;21.63;15.07;;;2.50;91.60;;;;;;6246469;22;20252;-87
2022/01/16 08:53:30;;;;;;;17.10;13.47;;;3.10;90.60;;;;;;6247388;22;20272;-86
2022/01/16 08:55:59;;;;;;;19.10;14.10;;;3.60;88.10;;;;;;6244213;22;20169;-87
2022/01/16 08:58:28;;;;;;;15.47;11.57;;;4.30;83.70;;;;;;6244379;22;20204;-86
2022/01/16 09:00:56;;;;;;;14.53;11.47;;;4.50;79.70;;;;;;6244395;22;20240;-87
2022/01/16 09:03:23;;;;;;;15.73;12.00;;;4.60;76.20;;;;;;6247064;22;20253;-86
2022/01/16 09:05:52;;;;;;;15.27;11.95;;;5.20;69.90;;;;;;6248126;22;20157;-86
2022/01/16 09:08:20;;;;;;;14.73;11.68;;;5.80;62.70;;;;;;6250023;22;20209;-86
2022/01/16 09:10:48;;;;;;;16.45;11.18;;;6.30;56.40;;;;;;6252427;22;20209;-87
2022/01/16 09:13:16;;;;;;;17.02;13.43;;;6.50;51.00;;;;;;6250685;22;20882;-85
2022/01/16 09:15:44;;;;;;;13.65;11.23;;;7.00;46.00;;;;;;6224665;22;20184;-86
2022/01/16 09:18:12;;;;;;;13.50;10.82;;;7.30;42.10;;;;;;6249215;23;20641;-87
2022/01/16 09:20:40;;;;;;;21.25;16.30;;;7.40;42.10;;;;;;6249162;22;20276;-89
2022/01/16 09:23:31;;;;;;;13.93;11.85;;;8.10;41.20;;;;;;6254859;22;20205;-87
2022/01/16 09:25:58;;;;;;;11.60;10.10;;;8.80;35.80;;;;;;6252455;22;20192;-86
2022/01/16 09:28:25;;;;;;;13.60;11.35;;;8.80;34.50;;;;;;6247572;22;20224;-89
2022/01/16 09:30:53;;;;;;;13.38;11.25;;;9.70;33.70;;;;;;6244068;22;20682;-89
2022/01/16 09:33:24;;;;;;;13.38;10.90;;;10.40;29.20;;;;;;6246492;23;20207;-90
2022/01/16 09:35:51;;;;;;;12.38;10.65;;;10.20;27.20;;;;;;6249518;22;20612;-89
2022/01/16 09:38:19;;;;;;;11.68;10.48;;;10.20;26.30;;;;;;6244953;22;20205;-91
2022/01/16 09:40:51;;;;;;;12.02;10.73;;;10.10;27.70;;;;;;6248167;23;20244;-87
2022/01/16 09:43:19;;;;;;;13.73;10.90;;;10.30;28.20;;;;;;6247153;22;20205;-89
2022/01/16 09:45:53;;;;;;;12.45;10.45;;;10.10;27.30;;;;;;6248191;22;20177;-88
2022/01/16 09:48:21;;;;;;;13.10;10.93;;;10.90;27.30;;;;;;6248879;22;20199;-88
2022/01/16 09:50:48;;;;;;;11.98;10.68;;;11.10;24.50;;;;;;6251503;22;20177;-88
2022/01/16 09:53:16;;;;;;;11.70;10.50;;;10.80;24.50;;;;;;6250145;22;20227;-88
2022/01/16 09:55:43;;;;;;;12.48;10.93;;;10.30;26.50;;;;;;6250413;23;20192;-86
2022/01/16 09:58:12;;;;;;;13.35;11.25;;;10.20;27.40;;;;;;6251749;22;20255;-87
2022/01/16 10:00:39;;;;;;;13.25;11.27;;;10.50;27.10;;;;;;6252854;22;20253;-87
2022/01/16 10:03:33;;;;;;;12.20;10.90;;;10.70;26.00;;;;;;6252413;22;20216;-87
2022/01/16 10:06:10;;;;;;;11.73;10.20;;;10.80;24.80;;;;;;6252545;22;20533;-88
2022/01/16 10:08:39;;;;;;;12.50;10.65;;;10.70;26.70;;;;;;6250793;22;20204;-86
2022/01/16 10:11:26;;;;;;;13.77;10.05;;;10.40;25.90;;;;;;6246731;22;20176;-89
2022/01/16 10:14:01;;;;;;;13.18;10.40;;;10.10;28.30;;;;;;6244718;22;20279;-90
2022/01/16 10:16:34;;;;;;;12.50;10.48;;;9.50;30.30;;;;;;6254723;22;20465;-91
2022/01/16 10:22:23;;;;;;;14.48;11.38;;;9.00;32.20;;;;;;6252249;22;20278;-88
2022/01/16 10:35:25;;;;;;;14.18;10.38;;;8.50;34.30;;;;;;6248947;22;20189;-90
2022/01/16 10:37:54;;;;;;;12.52;9.80;;;8.50;33.80;;;;;;6250068;23;20211;-90
2022/01/16 10:40:50;;;;;;;12.82;10.45;;;8.50;35.40;;;;;;6257182;23;20231;-89
2022/01/16 11:23:30;;;;;;;12.50;9.60;;;7.70;42.00;;;;;;6237531;22;20510;-88
2022/01/16 11:29:52;;;;;;;13.27;10.02;;;7.00;49.40;;;;;;6225229;23;20295;-86
2022/01/16 11:32:20;;;;;;;12.32;9.38;;;6.70;54.00;;;;;;6222061;23;20213;-88
2022/01/16 11:34:48;;;;;;;12.77;9.43;;;6.70;54.50;;;;;;6218258;23;20174;-87
2022/01/16 11:37:19;;;;;;;12.10;9.60;;;6.40;56.50;;;;;;6217887;23;20700;-83
2022/01/16 11:39:46;;;;;;;18.90;12.00;;;6.10;61.20;;;;;;6218446;23;20225;-85
2022/01/16 11:42:21;;;;;;;18.47;12.40;;;6.00;66.00;;;;;;6218449;23;20241;-83
2022/01/16 11:44:53;;;;;;;13.97;10.30;;;5.90;68.10;;;;;;6220768;23;20169;-84
2022/01/16 11:47:27;;;;;;;15.23;10.53;;;6.00;70.80;;;;;;6219834;23;20167;-85
2022/01/16 11:50:08;;;;;;;17.97;11.17;;;6.30;65.20;;;;;;6191569;23;20196;-85
2022/01/16 11:52:40;;;;;;;13.10;9.83;;;6.20;71.00;;;;;;6217692;23;20228;-84
2022/01/16 11:55:11;;;;;;;21.53;13.57;;;6.30;67.40;;;;;;6219859;23;20166;-88
2022/01/16 11:57:55;;;;;;;17.37;12.27;;;6.40;71.20;;;;;;6218469;23;20772;-84
2022/01/16 12:00:24;;;;;;;13.17;9.87;;;6.30;71.10;;;;;;6218731;23;20186;-84
2022/01/16 12:02:52;;;;;;;17.27;10.97;;;6.20;65.80;;;;;;6217073;23;20202;-83
2022/01/16 12:05:25;;;;;;;18.47;11.40;;;6.10;70.90;;;;;;6218674;23;20626;-88
2022/01/16 12:08:00;;;;;;;13.70;10.03;;;6.20;71.00;;;;;;6189948;23;20203;-85
2022/01/16 12:10:46;;;;;;;14.40;10.00;;;6.00;66.30;;;;;;6204841;23;20166;-85
2022/01/16 12:13:57;;;;;;;16.50;10.50;;;6.00;68.60;;;;;;6216729;23;20206;-84
2022/01/16 12:16:59;;;;;;;12.87;9.43;;;6.20;65.80;;;;;;6218427;23;20933;-85
2022/01/16 12:19:45;;;;;;;15.73;11.77;;;6.00;61.90;;;;;;6090779;23;20235;-83
2022/01/16 12:22:14;;;;;;;13.23;10.23;;;6.00;64.00;;;;;;6094917;23;20275;-85
2022/01/16 12:24:45;;;;;;;18.33;11.30;;;6.00;69.20;;;;;;6150391;23;20258;-85
2022/01/16 12:27:27;;;;;;;14.57;10.53;;;6.20;69.50;;;;;;6186883;23;20242;-86
2022/01/16 12:30:22;;;;;;;36.73;19.80;;;6.40;68.30;;;;;;6187330;23;20232;-87
2022/01/16 12:32:52;;;;;;;14.70;9.90;;;6.70;71.50;;;;;;6186919;23;20282;-85
2022/01/16 12:36:23;;;;;;;12.90;9.83;;;6.70;61.30;;;;;;6189265;23;20167;-87
2022/01/16 12:39:06;;;;;;;13.03;9.40;;;6.50;71.30;;;;;;6189162;23;20209;-85
2022/01/16 12:41:39;;;;;;;15.17;10.47;;;6.40;59.90;;;;;;6186725;23;20249;-83
2022/01/16 12:44:08;;;;;;;16.40;10.23;;;6.40;64.80;;;;;;6185753;23;20206;-87
2022/01/16 12:46:38;;;;;;;12.70;9.50;;;6.30;61.80;;;;;;6186274;23;20209;-84
2022/01/16 12:49:11;;;;;;;14.60;9.77;;;6.20;61.40;;;;;;6186681;23;20715;-85
2022/01/16 12:51:43;;;;;;;14.10;9.17;;;6.10;61.70;;;;;;6187543;23;20159;-85
2022/01/16 12:54:13;;;;;;;16.70;10.20;;;6.00;61.40;;;;;;6188548;23;20178;-85
2022/01/16 12:56:42;;;;;;;12.73;9.90;;;5.90;61.50;;;;;;6185824;23;20174;-86
2022/01/16 12:59:15;;;;;;;13.20;9.20;;;5.90;62.40;;;;;;6186558;23;20286;-87
2022/01/16 13:01:48;;;;;;;14.90;9.73;;;5.80;63.60;;;;;;6187393;23;20213;-88
2022/01/16 13:04:23;;;;;;;13.73;10.00;;;5.80;63.90;;;;;;6185130;23;20202;-86
2022/01/16 13:06:51;;;;;;;13.20;9.23;;;5.90;65.00;;;;;;6190492;23;20201;-86
2022/01/16 13:09:18;;;;;;;13.97;8.90;;;5.90;62.40;;;;;;6191202;23;20527;-88
2022/01/16 13:11:48;;;;;;;13.30;9.23;;;6.00;61.50;;;;;;6194344;23;20185;-86
2022/01/16 13:14:17;;;;;;;14.43;9.30;;;6.00;62.10;;;;;;6187884;23;20266;-85
2022/01/16 13:16:46;;;;;;;14.40;9.50;;;6.00;62.20;;;;;;6186934;23;20171;-83
2022/01/16 13:19:18;;;;;;;12.20;9.23;;;6.00;61.80;;;;;;6185816;23;20210;-85
2022/01/16 13:22:05;;;;;;;15.83;9.73;;;5.90;62.10;;;;;;6185670;23;20614;-86
2022/01/16 13:24:43;;;;;;;15.03;9.97;;;5.90;62.60;;;;;;6184319;23;20265;-84
2022/01/16 13:27:13;;;;;;;12.37;9.67;;;5.90;62.60;;;;;;6188151;23;20165;-93
2022/01/16 13:29:42;;;;;;;15.33;10.03;;;6.00;64.40;;;;;;6188444;23;20637;-83
2022/01/16 13:32:12;;;;;;;13.50;9.93;;;5.90;63.90;;;;;;6186597;23;20481;-84
2022/01/16 13:34:48;;;;;;;12.60;9.10;;;5.90;63.30;;;;;;6187177;23;20202;-85
2022/01/16 13:37:26;;;;;;;12.47;9.20;;;5.80;62.60;;;;;;6188186;23;20167;-86
2022/01/16 13:39:58;;;;;;;15.10;8.77;;;5.90;63.70;;;;;;6186014;23;20190;-84
2022/01/16 13:42:41;;;;;;;16.57;9.23;;;5.90;63.70;;;;;;6187334;23;20285;-87
2022/01/16 13:45:32;;;;;;;26.87;19.23;;;6.00;62.70;;;;;;6188524;23;20175;-86
2022/01/16 13:48:05;;;;;;;18.50;12.77;;;6.10;66.30;;;;;;6188980;23;20229;-86
2022/01/16 13:50:40;;;;;;;14.77;10.73;;;6.20;64.80;;;;;;6189724;23;20575;-82
2022/01/16 13:53:10;;;;;;;16.77;10.37;;;6.10;60.30;;;;;;6186494;23;20205;-84
2022/01/16 13:55:49;;;;;;;15.83;9.43;;;6.10;60.80;;;;;;6190413;23;20514;-84
2022/01/16 13:58:19;;;;;;;11.77;9.07;;;6.00;61.00;;;;;;6189816;23;20230;-84
2022/01/16 14:00:46;;;;;;;12.93;8.93;;;6.00;59.80;;;;;;6189886;23;20190;-85
2022/01/16 14:03:18;;;;;;;20.63;14.37;;;5.90;60.30;;;;;;6188228;23;20225;-83
2022/01/16 14:05:47;;;;;;;23.97;13.80;;;5.90;62.60;;;;;;6189100;23;20167;-86
2022/01/16 14:08:18;;;;;;;11.87;8.60;;;5.90;64.10;;;;;;6189213;23;20220;-81
2022/01/16 14:10:56;;;;;;;21.83;14.07;;;5.90;59.30;;;;;;6187431;23;20202;-84
2022/01/16 14:13:23;;;;;;;12.27;8.93;;;5.90;63.50;;;;;;6188116;23;20206;-85
2022/01/16 14:16:14;;;;;;;12.13;9.37;;;5.90;60.00;;;;;;6189499;23;20178;-83
2022/01/16 14:22:02;;;;;;;16.83;11.20;;;5.70;69.20;;;;;;6173372;23;20202;-81
2022/01/16 14:24:32;;;;;;;17.67;11.03;;;5.80;65.20;;;;;;6188833;23;20202;-81
2022/01/16 14:27:01;;;;;;;17.40;10.20;;;5.90;66.10;;;;;;6188060;23;20163;-87
2022/01/16 14:29:28;;;;;;;14.20;10.00;;;5.90;63.20;;;;;;6188124;23;20209;-84